sensor_id;sensor_type;location;lat;lon;timestamp;temperature;humidity
47022;DHT22;32779;52.264;6.154;2023-04-24T00:00:35;9.50;99.90
47022;DHT22;32779;52.264;6.154;2023-04-24T00:03:01;9.50;99.90
47022;DHT22;32779;52.264;6.154;2023-04-24T00:05:28;9.50;99.90
47022;DHT22;32779;52.264;6.154;2023-04-24T00:07:54;9.50;99.90
47022;DHT22;32779;52.264;6.154;2023-04-24T00:10:20;9.50;99.90
47022;DHT22;32779;52.264;6.154;2023-04-24T00:12:46;9.40;99.90
47022;DHT22;32779;52.264;6.154;2023-04-24T00:15:12;9.50;99.90
47022;DHT22;32779;52.264;6.154;2023-04-24T00:17:37;9.50;99.90
47022;DHT22;32779;52.264;6.154;2023-04-24T00:20:04;9.50;99.90
47022;DHT22;32779;52.264;6.154;2023-04-24T00:22:31;9.50;99.90
47022;DHT22;32779;52.264;6.154;2023-04-24T00:24:57;9.40;99.90
47022;DHT22;32779;52.264;6.154;2023-04-24T00:27:22;9.50;99.90
47022;DHT22;32779;52.264;6.154;2023-04-24T00:29:48;9.50;99.90
47022;DHT22;32779;52.264;6.154;2023-04-24T00:32:14;9.50;99.90
47022;DHT22;32779;52.264;6.154;2023-04-24T00:34:40;9.50;99.90
47022;DHT22;32779;52.264;6.154;2023-04-24T00:37:06;9.60;99.90
47022;DHT22;32779;52.264;6.154;2023-04-24T00:39:32;9.60;99.90
47022;DHT22;32779;52.264;6.154;2023-04-24T00:41:58;9.60;99.90
47022;DHT22;32779;52.264;6.154;2023-04-24T00:44:24;9.60;99.90
47022;DHT22;32779;52.264;6.154;2023-04-24T00:46:50;9.60;99.90
47022;DHT22;32779;52.264;6.154;2023-04-24T00:49:20;9.60;99.90
47022;DHT22;32779;52.264;6.154;2023-04-24T00:51:45;9.60;99.90
47022;DHT22;32779;52.264;6.154;2023-04-24T00:54:13;9.70;99.90
47022;DHT22;32779;52.264;6.154;2023-04-24T00:56:39;9.60;99.90
47022;DHT22;32779;52.264;6.154;2023-04-24T00:59:05;9.60;99.90
47022;DHT22;32779;52.264;6.154;2023-04-24T01:01:31;9.60;99.90
47022;DHT22;32779;52.264;6.154;2023-04-24T01:03:57;9.60;99.90
47022;DHT22;32779;52.264;6.154;2023-04-24T01:06:27;9.60;99.90
47022;DHT22;32779;52.264;6.154;2023-04-24T01:08:54;9.60;99.90
47022;DHT22;32779;52.264;6.154;2023-04-24T01:11:21;9.60;99.90
47022;DHT22;32779;52.264;6.154;2023-04-24T01:13:47;9.60;99.90
47022;DHT22;32779;52.264;6.154;2023-04-24T01:16:13;9.70;99.90
47022;DHT22;32779;52.264;6.154;2023-04-24T01:18:39;9.60;99.90
47022;DHT22;32779;52.264;6.154;2023-04-24T01:21:07;9.60;99.90
47022;DHT22;32779;52.264;6.154;2023-04-24T01:23:34;9.60;99.90
47022;DHT22;32779;52.264;6.154;2023-04-24T01:26:00;9.60;99.90
47022;DHT22;32779;52.264;6.154;2023-04-24T01:28:26;9.60;99.90
47022;DHT22;32779;52.264;6.154;2023-04-24T01:30:52;9.50;99.90
47022;DHT22;32779;52.264;6.154;2023-04-24T01:33:18;9.50;99.90
47022;DHT22;32779;52.264;6.154;2023-04-24T01:35:43;9.50;99.90
47022;DHT22;32779;52.264;6.154;2023-04-24T01:38:09;9.50;99.90
47022;DHT22;32779;52.264;6.154;2023-04-24T01:40:36;9.40;99.90
47022;DHT22;32779;52.264;6.154;2023-04-24T01:43:02;9.40;99.90
47022;DHT22;32779;52.264;6.154;2023-04-24T01:45:27;9.40;99.90
47022;DHT22;32779;52.264;6.154;2023-04-24T01:47:53;9.40;99.90
47022;DHT22;32779;52.264;6.154;2023-04-24T01:50:19;9.40;99.90
47022;DHT22;32779;52.264;6.154;2023-04-24T01:52:44;9.40;99.90
47022;DHT22;32779;52.264;6.154;2023-04-24T01:55:10;9.30;99.90
47022;DHT22;32779;52.264;6.154;2023-04-24T01:57:36;9.30;99.90
47022;DHT22;32779;52.264;6.154;2023-04-24T02:00:02;9.30;99.90
47022;DHT22;32779;52.264;6.154;2023-04-24T02:02:30;9.30;99.90
47022;DHT22;32779;52.264;6.154;2023-04-24T02:04:56;9.30;99.90
47022;DHT22;32779;52.264;6.154;2023-04-24T02:07:21;9.30;99.90
47022;DHT22;32779;52.264;6.154;2023-04-24T02:09:47;9.30;99.90
47022;DHT22;32779;52.264;6.154;2023-04-24T02:12:13;9.20;99.90
47022;DHT22;32779;52.264;6.154;2023-04-24T02:14:39;9.20;99.90
47022;DHT22;32779;52.264;6.154;2023-04-24T02:17:04;9.20;99.90
47022;DHT22;32779;52.264;6.154;2023-04-24T02:19:30;9.20;99.90
47022;DHT22;32779;52.264;6.154;2023-04-24T02:21:56;9.20;99.90
47022;DHT22;32779;52.264;6.154;2023-04-24T02:24:21;9.20;99.90
47022;DHT22;32779;52.264;6.154;2023-04-24T02:26:47;9.20;99.90
47022;DHT22;32779;52.264;6.154;2023-04-24T02:29:12;9.10;99.90
47022;DHT22;32779;52.264;6.154;2023-04-24T02:31:38;9.20;99.90
47022;DHT22;32779;52.264;6.154;2023-04-24T02:34:04;9.20;99.90
47022;DHT22;32779;52.264;6.154;2023-04-24T02:36:29;9.20;99.90
47022;DHT22;32779;52.264;6.154;2023-04-24T02:38:55;9.20;99.90
47022;DHT22;32779;52.264;6.154;2023-04-24T02:41:21;9.10;99.90
47022;DHT22;32779;52.264;6.154;2023-04-24T02:43:46;9.20;99.90
47022;DHT22;32779;52.264;6.154;2023-04-24T02:46:12;9.20;99.90
47022;DHT22;32779;52.264;6.154;2023-04-24T02:48:38;9.20;99.90
47022;DHT22;32779;52.264;6.154;2023-04-24T02:51:03;9.20;99.90
47022;DHT22;32779;52.264;6.154;2023-04-24T02:53:29;9.20;99.90
47022;DHT22;32779;52.264;6.154;2023-04-24T02:55:56;9.20;99.90
47022;DHT22;32779;52.264;6.154;2023-04-24T02:58:22;9.20;99.90
47022;DHT22;32779;52.264;6.154;2023-04-24T03:00:47;9.20;99.90
47022;DHT22;32779;52.264;6.154;2023-04-24T03:03:13;9.20;99.90
47022;DHT22;32779;52.264;6.154;2023-04-24T03:05:39;9.30;99.90
47022;DHT22;32779;52.264;6.154;2023-04-24T03:08:05;9.20;99.90
47022;DHT22;32779;52.264;6.154;2023-04-24T03:10:31;9.30;99.90
47022;DHT22;32779;52.264;6.154;2023-04-24T03:12:57;9.30;99.90
47022;DHT22;32779;52.264;6.154;2023-04-24T03:15:23;9.30;99.90
47022;DHT22;32779;52.264;6.154;2023-04-24T03:17:48;9.30;99.90
47022;DHT22;32779;52.264;6.154;2023-04-24T03:20:14;9.30;99.90
47022;DHT22;32779;52.264;6.154;2023-04-24T03:22:40;9.30;99.90
47022;DHT22;32779;52.264;6.154;2023-04-24T03:25:05;9.30;99.90
47022;DHT22;32779;52.264;6.154;2023-04-24T03:27:31;9.40;99.90
47022;DHT22;32779;52.264;6.154;2023-04-24T03:29:57;9.40;99.90
47022;DHT22;32779;52.264;6.154;2023-04-24T03:32:23;9.40;99.90
47022;DHT22;32779;52.264;6.154;2023-04-24T03:34:49;9.40;99.90
47022;DHT22;32779;52.264;6.154;2023-04-24T03:37:15;9.40;99.90
47022;DHT22;32779;52.264;6.154;2023-04-24T03:39:41;9.40;99.90
47022;DHT22;32779;52.264;6.154;2023-04-24T03:42:07;9.40;99.90
47022;DHT22;32779;52.264;6.154;2023-04-24T03:44:34;9.40;99.90
47022;DHT22;32779;52.264;6.154;2023-04-24T03:47:00;9.40;99.90
47022;DHT22;32779;52.264;6.154;2023-04-24T03:49:25;9.40;99.90
47022;DHT22;32779;52.264;6.154;2023-04-24T03:51:51;9.40;99.90
47022;DHT22;32779;52.264;6.154;2023-04-24T03:54:18;9.40;99.90
47022;DHT22;32779;52.264;6.154;2023-04-24T03:56:43;9.40;99.90
47022;DHT22;32779;52.264;6.154;2023-04-24T03:59:09;9.40;99.90
47022;DHT22;32779;52.264;6.154;2023-04-24T04:01:35;9.40;99.90
47022;DHT22;32779;52.264;6.154;2023-04-24T04:04:05;9.40;99.90
47022;DHT22;32779;52.264;6.154;2023-04-24T04:06:31;9.40;99.90
47022;DHT22;32779;52.264;6.154;2023-04-24T04:08:57;9.40;99.90
47022;DHT22;32779;52.264;6.154;2023-04-24T04:11:22;9.40;99.90
47022;DHT22;32779;52.264;6.154;2023-04-24T04:13:48;9.40;99.90
47022;DHT22;32779;52.264;6.154;2023-04-24T04:16:14;9.40;99.90
47022;DHT22;32779;52.264;6.154;2023-04-24T04:18:42;9.40;99.90
47022;DHT22;32779;52.264;6.154;2023-04-24T04:21:08;9.30;99.90
47022;DHT22;32779;52.264;6.154;2023-04-24T04:23:34;9.30;99.90
47022;DHT22;32779;52.264;6.154;2023-04-24T04:25:59;9.30;99.90
47022;DHT22;32779;52.264;6.154;2023-04-24T04:28:25;9.30;99.90
47022;DHT22;32779;52.264;6.154;2023-04-24T04:30:51;9.40;99.90
47022;DHT22;32779;52.264;6.154;2023-04-24T04:33:20;9.30;99.90
47022;DHT22;32779;52.264;6.154;2023-04-24T04:35:46;9.30;99.90
47022;DHT22;32779;52.264;6.154;2023-04-24T04:38:14;9.30;99.90
47022;DHT22;32779;52.264;6.154;2023-04-24T04:40:40;9.30;99.90
47022;DHT22;32779;52.264;6.154;2023-04-24T04:43:06;9.40;99.90
47022;DHT22;32779;52.264;6.154;2023-04-24T04:45:32;9.40;99.90
47022;DHT22;32779;52.264;6.154;2023-04-24T04:47:59;9.40;99.90
47022;DHT22;32779;52.264;6.154;2023-04-24T04:50:29;9.40;99.90
47022;DHT22;32779;52.264;6.154;2023-04-24T04:52:54;9.30;99.90
47022;DHT22;32779;52.264;6.154;2023-04-24T04:55:20;9.30;99.90
47022;DHT22;32779;52.264;6.154;2023-04-24T04:57:48;9.20;99.90
47022;DHT22;32779;52.264;6.154;2023-04-24T05:00:14;9.20;99.90
47022;DHT22;32779;52.264;6.154;2023-04-24T05:02:40;9.20;99.90
47022;DHT22;32779;52.264;6.154;2023-04-24T05:05:06;9.20;99.90
47022;DHT22;32779;52.264;6.154;2023-04-24T05:07:32;9.20;99.90
47022;DHT22;32779;52.264;6.154;2023-04-24T05:09:58;9.30;99.90
47022;DHT22;32779;52.264;6.154;2023-04-24T05:12:24;9.30;99.90
47022;DHT22;32779;52.264;6.154;2023-04-24T05:14:49;9.30;99.90
47022;DHT22;32779;52.264;6.154;2023-04-24T05:17:15;9.30;99.90
47022;DHT22;32779;52.264;6.154;2023-04-24T05:19:41;9.20;99.90
47022;DHT22;32779;52.264;6.154;2023-04-24T05:22:07;9.20;99.90
47022;DHT22;32779;52.264;6.154;2023-04-24T05:24:33;9.20;99.90
47022;DHT22;32779;52.264;6.154;2023-04-24T05:26:59;9.20;99.90
47022;DHT22;32779;52.264;6.154;2023-04-24T05:29:25;9.20;99.90
47022;DHT22;32779;52.264;6.154;2023-04-24T05:31:51;9.20;99.90
47022;DHT22;32779;52.264;6.154;2023-04-24T05:34:18;9.10;99.90
47022;DHT22;32779;52.264;6.154;2023-04-24T05:36:43;9.10;99.90
47022;DHT22;32779;52.264;6.154;2023-04-24T05:39:09;9.10;99.90
47022;DHT22;32779;52.264;6.154;2023-04-24T05:41:35;9.10;99.90
47022;DHT22;32779;52.264;6.154;2023-04-24T05:44:00;9.10;99.90
47022;DHT22;32779;52.264;6.154;2023-04-24T05:46:26;9.00;99.90
47022;DHT22;32779;52.264;6.154;2023-04-24T05:48:51;9.00;99.90
47022;DHT22;32779;52.264;6.154;2023-04-24T05:51:17;9.00;99.90
47022;DHT22;32779;52.264;6.154;2023-04-24T05:53:43;8.90;99.90
47022;DHT22;32779;52.264;6.154;2023-04-24T05:56:08;8.90;99.90
47022;DHT22;32779;52.264;6.154;2023-04-24T05:58:34;8.90;99.90
47022;DHT22;32779;52.264;6.154;2023-04-24T06:01:00;8.90;99.90
47022;DHT22;32779;52.264;6.154;2023-04-24T06:03:27;8.80;99.90
47022;DHT22;32779;52.264;6.154;2023-04-24T06:05:53;8.80;99.90
47022;DHT22;32779;52.264;6.154;2023-04-24T06:08:18;8.80;99.90
47022;DHT22;32779;52.264;6.154;2023-04-24T06:10:44;8.90;99.90
47022;DHT22;32779;52.264;6.154;2023-04-24T06:13:10;8.90;99.90
47022;DHT22;32779;52.264;6.154;2023-04-24T06:15:36;8.90;99.90
47022;DHT22;32779;52.264;6.154;2023-04-24T06:18:02;8.90;99.90
47022;DHT22;32779;52.264;6.154;2023-04-24T06:20:28;8.90;99.90
47022;DHT22;32779;52.264;6.154;2023-04-24T06:22:54;8.90;99.90
47022;DHT22;32779;52.264;6.154;2023-04-24T06:25:20;8.90;99.90
47022;DHT22;32779;52.264;6.154;2023-04-24T06:27:45;9.00;99.90
47022;DHT22;32779;52.264;6.154;2023-04-24T06:30:11;8.90;99.90
47022;DHT22;32779;52.264;6.154;2023-04-24T06:32:37;9.00;99.90
47022;DHT22;32779;52.264;6.154;2023-04-24T06:35:03;9.00;99.90
47022;DHT22;32779;52.264;6.154;2023-04-24T06:37:29;9.00;99.90
47022;DHT22;32779;52.264;6.154;2023-04-24T06:39:55;9.00;99.90
47022;DHT22;32779;52.264;6.154;2023-04-24T06:42:20;9.00;99.90
47022;DHT22;32779;52.264;6.154;2023-04-24T06:44:47;9.00;99.90
47022;DHT22;32779;52.264;6.154;2023-04-24T06:47:13;9.00;99.90
47022;DHT22;32779;52.264;6.154;2023-04-24T06:49:39;9.10;99.90
47022;DHT22;32779;52.264;6.154;2023-04-24T06:52:05;9.10;99.90
47022;DHT22;32779;52.264;6.154;2023-04-24T06:54:31;9.10;99.90
47022;DHT22;32779;52.264;6.154;2023-04-24T06:56:57;9.10;99.90
47022;DHT22;32779;52.264;6.154;2023-04-24T06:59:23;9.10;99.90
47022;DHT22;32779;52.264;6.154;2023-04-24T07:01:49;9.20;99.90
47022;DHT22;32779;52.264;6.154;2023-04-24T07:04:16;9.20;99.90
47022;DHT22;32779;52.264;6.154;2023-04-24T07:06:42;9.30;99.90
47022;DHT22;32779;52.264;6.154;2023-04-24T07:09:08;9.30;99.90
47022;DHT22;32779;52.264;6.154;2023-04-24T07:11:34;9.30;99.90
47022;DHT22;32779;52.264;6.154;2023-04-24T07:14:02;9.40;99.90
47022;DHT22;32779;52.264;6.154;2023-04-24T07:16:28;9.40;99.90
47022;DHT22;32779;52.264;6.154;2023-04-24T07:18:54;9.50;99.90
47022;DHT22;32779;52.264;6.154;2023-04-24T07:21:20;9.50;99.90
47022;DHT22;32779;52.264;6.154;2023-04-24T07:23:45;9.60;99.90
47022;DHT22;32779;52.264;6.154;2023-04-24T07:26:11;9.60;99.90
47022;DHT22;32779;52.264;6.154;2023-04-24T07:28:36;9.60;99.90
47022;DHT22;32779;52.264;6.154;2023-04-24T07:31:02;9.60;99.90
47022;DHT22;32779;52.264;6.154;2023-04-24T07:33:28;9.60;99.90
47022;DHT22;32779;52.264;6.154;2023-04-24T07:35:53;9.60;99.90
47022;DHT22;32779;52.264;6.154;2023-04-24T07:38:19;9.50;99.90
47022;DHT22;32779;52.264;6.154;2023-04-24T07:40:48;9.50;99.90
47022;DHT22;32779;52.264;6.154;2023-04-24T07:43:14;9.50;99.90
47022;DHT22;32779;52.264;6.154;2023-04-24T07:45:40;9.50;99.90
47022;DHT22;32779;52.264;6.154;2023-04-24T07:48:06;9.50;99.90
47022;DHT22;32779;52.264;6.154;2023-04-24T07:50:31;9.40;99.90
47022;DHT22;32779;52.264;6.154;2023-04-24T07:52:57;9.50;99.90
47022;DHT22;32779;52.264;6.154;2023-04-24T07:55:23;9.50;99.90
47022;DHT22;32779;52.264;6.154;2023-04-24T07:57:49;9.40;99.90
47022;DHT22;32779;52.264;6.154;2023-04-24T08:00:15;9.40;99.90
47022;DHT22;32779;52.264;6.154;2023-04-24T08:02:40;9.40;99.90
47022;DHT22;32779;52.264;6.154;2023-04-24T08:05:06;9.30;99.90
47022;DHT22;32779;52.264;6.154;2023-04-24T08:07:32;9.30;99.90
47022;DHT22;32779;52.264;6.154;2023-04-24T08:09:58;9.30;99.90
47022;DHT22;32779;52.264;6.154;2023-04-24T08:12:25;9.30;99.90
47022;DHT22;32779;52.264;6.154;2023-04-24T08:14:50;9.30;99.90
47022;DHT22;32779;52.264;6.154;2023-04-24T08:17:17;9.20;99.90
47022;DHT22;32779;52.264;6.154;2023-04-24T08:19:42;9.20;99.90
47022;DHT22;32779;52.264;6.154;2023-04-24T08:22:12;9.20;99.90
47022;DHT22;32779;52.264;6.154;2023-04-24T08:24:38;9.20;99.90
47022;DHT22;32779;52.264;6.154;2023-04-24T08:27:04;9.10;99.90
47022;DHT22;32779;52.264;6.154;2023-04-24T08:29:29;9.10;99.90
47022;DHT22;32779;52.264;6.154;2023-04-24T08:31:55;9.10;99.90
47022;DHT22;32779;52.264;6.154;2023-04-24T08:34:21;9.10;99.90
47022;DHT22;32779;52.264;6.154;2023-04-24T08:36:47;9.00;99.90
47022;DHT22;32779;52.264;6.154;2023-04-24T08:39:12;9.00;99.90
47022;DHT22;32779;52.264;6.154;2023-04-24T08:41:40;9.00;99.90
47022;DHT22;32779;52.264;6.154;2023-04-24T08:44:09;9.00;99.90
47022;DHT22;32779;52.264;6.154;2023-04-24T08:46:35;9.10;99.90
47022;DHT22;32779;52.264;6.154;2023-04-24T08:49:01;9.00;99.90
47022;DHT22;32779;52.264;6.154;2023-04-24T08:51:27;9.00;99.90
47022;DHT22;32779;52.264;6.154;2023-04-24T08:53:54;9.00;99.90
47022;DHT22;32779;52.264;6.154;2023-04-24T08:56:20;9.10;99.90
47022;DHT22;32779;52.264;6.154;2023-04-24T08:58:52;9.10;99.90
47022;DHT22;32779;52.264;6.154;2023-04-24T09:01:21;9.10;99.90
47022;DHT22;32779;52.264;6.154;2023-04-24T09:03:49;9.10;99.90
47022;DHT22;32779;52.264;6.154;2023-04-24T09:06:16;9.10;99.90
47022;DHT22;32779;52.264;6.154;2023-04-24T09:08:43;9.10;99.90
47022;DHT22;32779;52.264;6.154;2023-04-24T09:11:11;9.10;99.90
47022;DHT22;32779;52.264;6.154;2023-04-24T09:13:37;9.10;99.90
47022;DHT22;32779;52.264;6.154;2023-04-24T09:16:03;9.10;99.90
47022;DHT22;32779;52.264;6.154;2023-04-24T09:18:29;9.20;99.90
47022;DHT22;32779;52.264;6.154;2023-04-24T09:21:06;9.20;99.90
47022;DHT22;32779;52.264;6.154;2023-04-24T09:23:32;9.20;99.90
47022;DHT22;32779;52.264;6.154;2023-04-24T09:25:59;9.20;99.90
47022;DHT22;32779;52.264;6.154;2023-04-24T09:28:35;9.30;99.90
47022;DHT22;32779;52.264;6.154;2023-04-24T09:31:13;9.20;99.90
47022;DHT22;32779;52.264;6.154;2023-04-24T09:33:40;9.20;99.90
47022;DHT22;32779;52.264;6.154;2023-04-24T09:36:05;9.20;99.90
47022;DHT22;32779;52.264;6.154;2023-04-24T09:38:38;9.30;99.90
47022;DHT22;32779;52.264;6.154;2023-04-24T09:41:08;9.20;99.90
47022;DHT22;32779;52.264;6.154;2023-04-24T09:43:34;9.30;99.90
47022;DHT22;32779;52.264;6.154;2023-04-24T09:46:06;9.30;99.90
47022;DHT22;32779;52.264;6.154;2023-04-24T09:48:33;9.30;99.90
47022;DHT22;32779;52.264;6.154;2023-04-24T09:51:04;9.30;99.90
47022;DHT22;32779;52.264;6.154;2023-04-24T09:53:32;9.50;99.90
47022;DHT22;32779;52.264;6.154;2023-04-24T09:56:08;9.50;99.90
47022;DHT22;32779;52.264;6.154;2023-04-24T09:58:35;9.50;99.90
47022;DHT22;32779;52.264;6.154;2023-04-24T10:01:01;9.50;99.90
47022;DHT22;32779;52.264;6.154;2023-04-24T10:03:30;9.50;99.90
47022;DHT22;32779;52.264;6.154;2023-04-24T10:05:59;9.50;99.90
47022;DHT22;32779;52.264;6.154;2023-04-24T10:08:25;9.50;99.90
47022;DHT22;32779;52.264;6.154;2023-04-24T10:10:52;9.50;99.90
47022;DHT22;32779;52.264;6.154;2023-04-24T10:13:17;9.50;99.90
47022;DHT22;32779;52.264;6.154;2023-04-24T10:15:43;9.40;99.90
47022;DHT22;32779;52.264;6.154;2023-04-24T10:18:10;9.30;99.90
47022;DHT22;32779;52.264;6.154;2023-04-24T10:20:40;9.30;99.90
47022;DHT22;32779;52.264;6.154;2023-04-24T10:23:06;9.30;99.90
47022;DHT22;32779;52.264;6.154;2023-04-24T10:25:34;9.20;99.90
47022;DHT22;32779;52.264;6.154;2023-04-24T10:28:01;9.20;99.90
47022;DHT22;32779;52.264;6.154;2023-04-24T10:30:29;9.20;99.90
47022;DHT22;32779;52.264;6.154;2023-04-24T10:32:55;9.10;99.90
47022;DHT22;32779;52.264;6.154;2023-04-24T10:35:23;9.20;99.90
47022;DHT22;32779;52.264;6.154;2023-04-24T10:37:57;9.20;99.90
47022;DHT22;32779;52.264;6.154;2023-04-24T10:40:31;9.20;99.90
47022;DHT22;32779;52.264;6.154;2023-04-24T10:42:57;9.30;99.90
47022;DHT22;32779;52.264;6.154;2023-04-24T10:45:23;9.20;99.90
47022;DHT22;32779;52.264;6.154;2023-04-24T10:47:54;9.20;99.90
47022;DHT22;32779;52.264;6.154;2023-04-24T10:50:21;9.30;99.90
47022;DHT22;32779;52.264;6.154;2023-04-24T10:52:48;9.40;99.90
47022;DHT22;32779;52.264;6.154;2023-04-24T10:55:25;9.50;99.90
47022;DHT22;32779;52.264;6.154;2023-04-24T10:58:03;9.60;99.90
47022;DHT22;32779;52.264;6.154;2023-04-24T11:00:29;9.70;99.90
47022;DHT22;32779;52.264;6.154;2023-04-24T11:02:55;9.80;99.90
47022;DHT22;32779;52.264;6.154;2023-04-24T11:05:21;9.90;99.90
47022;DHT22;32779;52.264;6.154;2023-04-24T11:08:15;10.00;99.90
47022;DHT22;32779;52.264;6.154;2023-04-24T11:10:47;10.00;99.90
47022;DHT22;32779;52.264;6.154;2023-04-24T11:13:22;10.00;99.90
47022;DHT22;32779;52.264;6.154;2023-04-24T11:16:14;10.10;99.90
47022;DHT22;32779;52.264;6.154;2023-04-24T11:18:42;10.10;99.90
47022;DHT22;32779;52.264;6.154;2023-04-24T11:21:16;10.10;99.90
47022;DHT22;32779;52.264;6.154;2023-04-24T11:23:42;10.20;99.90
47022;DHT22;32779;52.264;6.154;2023-04-24T11:28:47;10.20;99.90
47022;DHT22;32779;52.264;6.154;2023-04-24T11:31:37;10.10;99.90
47022;DHT22;32779;52.264;6.154;2023-04-24T11:34:10;10.10;99.90
47022;DHT22;32779;52.264;6.154;2023-04-24T11:36:37;10.00;99.90
47022;DHT22;32779;52.264;6.154;2023-04-24T11:39:03;10.00;99.90
47022;DHT22;32779;52.264;6.154;2023-04-24T11:41:30;10.00;99.90
47022;DHT22;32779;52.264;6.154;2023-04-24T11:43:56;10.10;99.90
47022;DHT22;32779;52.264;6.154;2023-04-24T11:46:22;10.10;99.90
47022;DHT22;32779;52.264;6.154;2023-04-24T11:48:48;10.00;99.90
47022;DHT22;32779;52.264;6.154;2023-04-24T11:51:14;10.00;99.90
47022;DHT22;32779;52.264;6.154;2023-04-24T11:53:39;9.90;99.90
47022;DHT22;32779;52.264;6.154;2023-04-24T11:56:05;10.00;99.90
47022;DHT22;32779;52.264;6.154;2023-04-24T11:58:38;10.00;99.90
47022;DHT22;32779;52.264;6.154;2023-04-24T12:01:04;10.10;99.90
47022;DHT22;32779;52.264;6.154;2023-04-24T12:03:30;10.20;99.90
47022;DHT22;32779;52.264;6.154;2023-04-24T12:06:06;10.40;99.90
47022;DHT22;32779;52.264;6.154;2023-04-24T12:08:33;10.60;99.90
47022;DHT22;32779;52.264;6.154;2023-04-24T12:11:00;10.80;99.90
47022;DHT22;32779;52.264;6.154;2023-04-24T12:13:26;10.90;99.90
47022;DHT22;32779;52.264;6.154;2023-04-24T12:15:52;10.80;99.90
47022;DHT22;32779;52.264;6.154;2023-04-24T12:18:18;10.80;99.90
47022;DHT22;32779;52.264;6.154;2023-04-24T12:20:43;10.70;99.90
47022;DHT22;32779;52.264;6.154;2023-04-24T12:23:09;10.60;99.90
47022;DHT22;32779;52.264;6.154;2023-04-24T12:25:35;10.40;99.90
47022;DHT22;32779;52.264;6.154;2023-04-24T12:30:31;10.10;99.90
47022;DHT22;32779;52.264;6.154;2023-04-24T12:32:58;10.10;99.90
47022;DHT22;32779;52.264;6.154;2023-04-24T12:35:29;10.20;99.90
47022;DHT22;32779;52.264;6.154;2023-04-24T12:38:08;10.30;99.90
47022;DHT22;32779;52.264;6.154;2023-04-24T12:40:34;10.50;99.90
47022;DHT22;32779;52.264;6.154;2023-04-24T12:42:59;10.60;99.90
47022;DHT22;32779;52.264;6.154;2023-04-24T12:45:25;10.70;99.90
47022;DHT22;32779;52.264;6.154;2023-04-24T12:47:53;10.80;99.90
47022;DHT22;32779;52.264;6.154;2023-04-24T12:50:18;10.80;99.90
47022;DHT22;32779;52.264;6.154;2023-04-24T12:52:44;10.90;99.90
47022;DHT22;32779;52.264;6.154;2023-04-24T12:55:10;10.90;99.90
47022;DHT22;32779;52.264;6.154;2023-04-24T12:57:38;10.80;99.90
47022;DHT22;32779;52.264;6.154;2023-04-24T13:00:05;10.60;99.90
47022;DHT22;32779;52.264;6.154;2023-04-24T13:02:31;10.30;99.90
47022;DHT22;32779;52.264;6.154;2023-04-24T13:04:58;10.00;99.90
47022;DHT22;32779;52.264;6.154;2023-04-24T13:07:24;9.90;99.90
47022;DHT22;32779;52.264;6.154;2023-04-24T13:09:51;10.00;99.90
47022;DHT22;32779;52.264;6.154;2023-04-24T13:12:17;10.10;99.90
47022;DHT22;32779;52.264;6.154;2023-04-24T13:14:43;10.20;99.90
47022;DHT22;32779;52.264;6.154;2023-04-24T13:17:09;10.30;99.90
47022;DHT22;32779;52.264;6.154;2023-04-24T13:19:37;10.50;99.90
47022;DHT22;32779;52.264;6.154;2023-04-24T13:22:03;10.50;99.90
47022;DHT22;32779;52.264;6.154;2023-04-24T13:24:29;10.60;99.90
47022;DHT22;32779;52.264;6.154;2023-04-24T13:26:56;10.60;99.90
47022;DHT22;32779;52.264;6.154;2023-04-24T13:29:22;10.50;99.90
47022;DHT22;32779;52.264;6.154;2023-04-24T13:31:50;10.30;99.90
47022;DHT22;32779;52.264;6.154;2023-04-24T13:34:16;10.20;99.90
47022;DHT22;32779;52.264;6.154;2023-04-24T13:36:42;10.10;99.90
47022;DHT22;32779;52.264;6.154;2023-04-24T13:39:08;9.90;99.90
47022;DHT22;32779;52.264;6.154;2023-04-24T13:41:33;9.90;99.90
47022;DHT22;32779;52.264;6.154;2023-04-24T13:44:00;9.90;99.90
47022;DHT22;32779;52.264;6.154;2023-04-24T13:46:25;9.90;99.90
47022;DHT22;32779;52.264;6.154;2023-04-24T13:48:51;9.90;99.90
47022;DHT22;32779;52.264;6.154;2023-04-24T13:51:17;9.80;99.90
47022;DHT22;32779;52.264;6.154;2023-04-24T13:53:43;9.80;99.90
47022;DHT22;32779;52.264;6.154;2023-04-24T13:56:09;9.90;99.90
47022;DHT22;32779;52.264;6.154;2023-04-24T13:58:35;10.00;99.90
47022;DHT22;32779;52.264;6.154;2023-04-24T14:01:02;10.00;99.90
47022;DHT22;32779;52.264;6.154;2023-04-24T14:03:28;10.00;99.90
47022;DHT22;32779;52.264;6.154;2023-04-24T14:05:54;10.20;99.90
47022;DHT22;32779;52.264;6.154;2023-04-24T14:08:20;10.30;99.90
47022;DHT22;32779;52.264;6.154;2023-04-24T14:10:45;10.40;99.90
47022;DHT22;32779;52.264;6.154;2023-04-24T14:13:11;10.40;99.90
47022;DHT22;32779;52.264;6.154;2023-04-24T14:15:37;10.30;99.90
47022;DHT22;32779;52.264;6.154;2023-04-24T14:18:03;10.30;99.90
47022;DHT22;32779;52.264;6.154;2023-04-24T14:20:29;10.30;99.90
47022;DHT22;32779;52.264;6.154;2023-04-24T14:22:54;10.10;99.90
47022;DHT22;32779;52.264;6.154;2023-04-24T14:25:20;10.00;99.90
47022;DHT22;32779;52.264;6.154;2023-04-24T14:27:47;9.90;99.90
47022;DHT22;32779;52.264;6.154;2023-04-24T14:30:13;9.80;99.90
47022;DHT22;32779;52.264;6.154;2023-04-24T14:32:39;9.70;99.90
47022;DHT22;32779;52.264;6.154;2023-04-24T14:35:06;9.60;99.90
47022;DHT22;32779;52.264;6.154;2023-04-24T14:37:32;9.60;99.90
47022;DHT22;32779;52.264;6.154;2023-04-24T14:39:57;9.60;99.90
47022;DHT22;32779;52.264;6.154;2023-04-24T14:42:23;9.60;99.90
47022;DHT22;32779;52.264;6.154;2023-04-24T14:44:49;9.70;99.90
47022;DHT22;32779;52.264;6.154;2023-04-24T14:47:14;9.80;99.90
47022;DHT22;32779;52.264;6.154;2023-04-24T14:49:43;9.90;99.90
47022;DHT22;32779;52.264;6.154;2023-04-24T14:52:09;10.00;99.90
47022;DHT22;32779;52.264;6.154;2023-04-24T14:54:36;10.10;99.90
47022;DHT22;32779;52.264;6.154;2023-04-24T14:57:02;10.10;99.90
47022;DHT22;32779;52.264;6.154;2023-04-24T14:59:28;10.10;99.90
47022;DHT22;32779;52.264;6.154;2023-04-24T15:01:54;10.10;99.90
47022;DHT22;32779;52.264;6.154;2023-04-24T15:04:24;10.00;99.90
47022;DHT22;32779;52.264;6.154;2023-04-24T15:06:51;10.00;99.90
47022;DHT22;32779;52.264;6.154;2023-04-24T15:09:16;10.10;99.90
47022;DHT22;32779;52.264;6.154;2023-04-24T15:11:42;10.20;99.90
47022;DHT22;32779;52.264;6.154;2023-04-24T15:14:08;10.30;99.90
47022;DHT22;32779;52.264;6.154;2023-04-24T15:16:33;10.40;99.90
47022;DHT22;32779;52.264;6.154;2023-04-24T15:18:59;10.50;99.90
47022;DHT22;32779;52.264;6.154;2023-04-24T15:21:24;10.60;99.90
47022;DHT22;32779;52.264;6.154;2023-04-24T15:23:51;10.70;99.90
47022;DHT22;32779;52.264;6.154;2023-04-24T15:26:17;10.70;99.90
47022;DHT22;32779;52.264;6.154;2023-04-24T15:28:42;10.70;99.90
47022;DHT22;32779;52.264;6.154;2023-04-24T15:31:08;10.90;99.90
47022;DHT22;32779;52.264;6.154;2023-04-24T15:33:33;10.90;99.90
47022;DHT22;32779;52.264;6.154;2023-04-24T15:35:59;10.90;99.90
47022;DHT22;32779;52.264;6.154;2023-04-24T15:38:25;10.80;99.90
47022;DHT22;32779;52.264;6.154;2023-04-24T15:40:51;10.90;99.90
47022;DHT22;32779;52.264;6.154;2023-04-24T15:43:16;11.00;99.90